Terminal Aerodrome Forecast
Issued by NWS Jackson, KY

Home | Current Version | Previous Version | Text Only | Print | Product List | Glossary On
Versions: 1 2 3 4 5 6 7 8 9 10 11 12 13 14 15
000
FTUS43 KJKL 270243 AAA
TAFJKL
TAF AMD
KJKL 270243Z 2703/2724 VRB04KT 5SM -RA BR BKN012
     FM270500 VRB03KT 4SM BR OVC015
     FM271100 34005KT 6SM BR SCT020 BKN025
     FM271300 34005KT P6SM SCT250
     FM271800 32003KT P6SM VCSH BKN050=

USA.gov is the U.S. government's official web portal to all federal, state and local government web resources and services.